createdAt,value
2022-10-05T00:01:40.376Z,7.60
2022-10-05T00:04:15.846Z,7.60
2022-10-05T00:06:47.220Z,7.60
2022-10-05T00:09:22.001Z,7.60
2022-10-05T00:11:54.562Z,7.60
2022-10-05T00:14:35.678Z,7.60
2022-10-05T00:17:06.479Z,7.60
2022-10-05T00:19:39.578Z,7.60
2022-10-05T00:22:15.845Z,7.60
2022-10-05T00:24:47.203Z,7.60
2022-10-05T00:27:22.817Z,7.60
2022-10-05T00:29:54.491Z,7.60
2022-10-05T00:32:25.024Z,7.60
2022-10-05T00:34:59.955Z,7.60
2022-10-05T00:37:28.791Z,7.60
2022-10-05T00:39:58.395Z,7.60
2022-10-05T00:42:40.760Z,7.60
2022-10-05T00:45:16.963Z,7.70
2022-10-05T00:47:57.391Z,7.70
2022-10-05T00:50:52.915Z,7.70
2022-10-05T00:53:38.363Z,7.70
2022-10-05T00:56:19.439Z,7.80
2022-10-05T00:59:00.264Z,7.80
2022-10-05T01:01:36.640Z,7.80
2022-10-05T01:04:19.112Z,7.80
2022-10-05T01:07:01.782Z,7.80
2022-10-05T01:09:42.071Z,7.80
2022-10-05T01:12:20.005Z,7.80
2022-10-05T01:14:57.462Z,7.80
2022-10-05T01:17:33.910Z,7.90
2022-10-05T01:20:25.241Z,7.90
2022-10-05T01:23:30.653Z,7.80
2022-10-05T01:26:19.656Z,7.80
2022-10-05T01:28:59.248Z,7.80
2022-10-05T01:31:37.085Z,7.80
2022-10-05T01:34:14.682Z,7.80
2022-10-05T01:36:58.575Z,7.80
2022-10-05T01:39:34.265Z,7.80
2022-10-05T01:42:13.529Z,7.80
2022-10-05T01:44:53.249Z,7.80
2022-10-05T01:47:30.282Z,7.80
2022-10-05T01:50:05.016Z,7.80
2022-10-05T01:52:45.356Z,7.80
2022-10-05T01:55:23.084Z,7.70
2022-10-05T01:58:05.012Z,7.70
2022-10-05T02:00:54.523Z,7.70
2022-10-05T02:03:29.523Z,7.60
2022-10-05T02:06:02.201Z,7.60
2022-10-05T02:08:38.553Z,7.50
2022-10-05T02:11:10.265Z,7.50
2022-10-05T02:13:44.954Z,7.50
2022-10-05T02:16:22.224Z,7.50
2022-10-05T02:18:55.936Z,7.50
2022-10-05T02:21:27.806Z,7.50
2022-10-05T02:24:02.141Z,7.50
2022-10-05T02:26:35.827Z,7.50
2022-10-05T02:29:09.865Z,7.50
2022-10-05T02:31:48.715Z,7.50
2022-10-05T02:34:30.870Z,7.50
2022-10-05T02:37:24.649Z,7.50
2022-10-05T02:40:10.848Z,7.50
2022-10-05T02:42:51.090Z,7.50
2022-10-05T02:45:29.106Z,7.50
2022-10-05T02:48:10.663Z,7.50
2022-10-05T02:50:45.116Z,7.50
2022-10-05T02:53:24.011Z,7.50
2022-10-05T02:56:08.982Z,7.50
2022-10-05T02:58:47.267Z,7.50
2022-10-05T03:01:24.655Z,7.40
2022-10-05T03:04:06.606Z,7.40
2022-10-05T03:06:43.287Z,7.40
2022-10-05T03:09:12.647Z,7.40
2022-10-05T03:11:53.100Z,7.40
2022-10-05T03:14:27.574Z,7.40
2022-10-05T03:17:07.846Z,7.40
2022-10-05T03:19:52.110Z,7.40
2022-10-05T03:22:31.813Z,7.40
2022-10-05T03:25:27.362Z,7.40
2022-10-05T03:28:06.606Z,7.40
2022-10-05T03:30:42.293Z,7.40
2022-10-05T03:33:18.534Z,7.30
2022-10-05T03:36:00.471Z,7.30
2022-10-05T03:38:43.754Z,7.30
2022-10-05T03:41:19.254Z,7.30
2022-10-05T03:44:30.199Z,7.30
2022-10-05T03:47:12.663Z,7.30
2022-10-05T03:50:04.358Z,7.30
2022-10-05T03:52:42.769Z,7.30
2022-10-05T03:55:22.545Z,7.30
2022-10-05T03:57:58.382Z,7.20
2022-10-05T04:00:30.610Z,7.20
2022-10-05T04:03:11.240Z,7.20
2022-10-05T04:05:51.579Z,7.20
2022-10-05T04:08:30.568Z,7.20
2022-10-05T04:11:06.462Z,7.20
2022-10-05T04:13:41.302Z,7.20
2022-10-05T04:16:15.576Z,7.20
2022-10-05T04:18:51.048Z,7.20
2022-10-05T04:21:23.945Z,7.20
2022-10-05T04:24:01.295Z,7.20
2022-10-05T04:26:37.078Z,7.20
2022-10-05T04:29:16.167Z,7.20
2022-10-05T04:32:09.961Z,7.20
2022-10-05T04:34:53.467Z,7.20
2022-10-05T04:37:30.376Z,7.20
2022-10-05T04:40:13.366Z,7.20
2022-10-05T04:42:52.929Z,7.10
2022-10-05T04:45:42.498Z,7.10
2022-10-05T04:48:44.722Z,7.10
2022-10-05T04:51:32.403Z,7.10
2022-10-05T04:54:12.847Z,7.20
2022-10-05T04:56:50.567Z,7.20
2022-10-05T04:59:50.118Z,7.20
2022-10-05T05:02:28.050Z,7.20
2022-10-05T05:05:22.097Z,7.30
2022-10-05T05:08:03.297Z,7.30
2022-10-05T05:10:56.683Z,7.40
2022-10-05T05:13:56.294Z,7.50
2022-10-05T05:16:34.180Z,7.60
2022-10-05T05:19:28.888Z,7.70
2022-10-05T05:22:04.183Z,7.80
2022-10-05T05:24:43.128Z,7.90
2022-10-05T05:27:31.694Z,8.00
2022-10-05T05:30:08.801Z,8.20
2022-10-05T05:32:46.925Z,8.50
2022-10-05T05:35:33.527Z,8.80
2022-10-05T05:38:11.714Z,8.80
2022-10-05T05:40:48.548Z,8.80
2022-10-05T05:43:25.826Z,8.80
2022-10-05T05:46:01.850Z,8.80
2022-10-05T05:48:38.266Z,8.80
2022-10-05T05:51:14.220Z,8.90
2022-10-05T05:53:46.082Z,9.00
2022-10-05T05:56:18.074Z,9.10
2022-10-05T05:58:52.036Z,9.10
2022-10-05T06:01:33.257Z,9.20
2022-10-05T06:04:10.870Z,9.20
2022-10-05T06:06:44.629Z,9.20
2022-10-05T06:09:21.697Z,9.20
2022-10-05T06:12:04.286Z,9.20
2022-10-05T06:14:38.751Z,9.20
2022-10-05T06:17:15.489Z,9.20
2022-10-05T06:19:45.674Z,9.30
2022-10-05T06:22:22.427Z,9.30
2022-10-05T06:25:05.456Z,9.30
2022-10-05T06:27:38.701Z,9.30
2022-10-05T06:30:13.539Z,9.40
2022-10-05T06:33:04.324Z,9.50
2022-10-05T06:35:46.700Z,9.60
2022-10-05T06:38:32.848Z,9.70
2022-10-05T06:41:13.491Z,9.80
2022-10-05T06:43:54.903Z,9.90
2022-10-05T06:47:01.354Z,10.00
2022-10-05T06:49:58.115Z,10.10
2022-10-05T06:52:55.356Z,10.20
2022-10-05T06:55:31.285Z,10.40
2022-10-05T06:58:18.136Z,10.50
2022-10-05T07:00:54.125Z,10.60
2022-10-05T07:03:42.192Z,10.70
2022-10-05T07:06:19.718Z,10.90
2022-10-05T07:09:01.403Z,11.00
2022-10-05T07:11:57.388Z,11.30
2022-10-05T07:14:44.458Z,11.50
2022-10-05T07:17:25.284Z,11.90
2022-10-05T07:20:03.886Z,12.20
2022-10-05T07:22:58.360Z,12.40
2022-10-05T07:25:34.406Z,12.80
2022-10-05T07:28:09.698Z,13.10
2022-10-05T07:30:47.530Z,13.20
2022-10-05T07:33:25.386Z,13.20
2022-10-05T07:36:21.534Z,13.20
2022-10-05T07:38:59.019Z,13.20
2022-10-05T07:41:37.395Z,13.20
2022-10-05T07:44:14.665Z,13.20
2022-10-05T07:46:54.454Z,13.20
2022-10-05T07:49:34.656Z,13.30
2022-10-05T07:52:07.653Z,13.40
2022-10-05T07:54:47.204Z,13.60
2022-10-05T07:57:25.882Z,13.60
2022-10-05T08:00:02.402Z,13.70
2022-10-05T08:02:49.466Z,13.90
2022-10-05T08:05:23.886Z,14.00
2022-10-05T08:07:58.079Z,13.90
2022-10-05T08:10:34.575Z,13.90
2022-10-05T08:13:12.762Z,13.80
2022-10-05T08:15:44.188Z,13.90
2022-10-05T08:18:20.775Z,13.90
2022-10-05T08:20:51.747Z,14.00
2022-10-05T08:23:25.326Z,14.10
2022-10-05T08:26:09.608Z,14.20
2022-10-05T08:28:40.860Z,14.20
2022-10-05T08:31:20.514Z,14.30
2022-10-05T08:34:00.012Z,14.40
2022-10-05T08:36:53.802Z,14.60
2022-10-05T08:39:25.475Z,14.80
2022-10-05T08:42:31.804Z,14.90
2022-10-05T08:45:35.284Z,15.10
2022-10-05T08:48:23.896Z,15.20
2022-10-05T08:51:28.435Z,15.20
2022-10-05T08:54:28.431Z,15.30
2022-10-05T08:57:16.248Z,15.40
2022-10-05T09:00:05.184Z,15.40
2022-10-05T09:02:55.576Z,15.50
2022-10-05T09:05:44.261Z,15.60
2022-10-05T09:08:45.201Z,15.70
2022-10-05T09:11:23.400Z,15.70
2022-10-05T09:14:21.919Z,15.90
2022-10-05T09:17:14.849Z,16.00
2022-10-05T09:20:02.669Z,16.10
2022-10-05T09:22:39.797Z,16.30
2022-10-05T09:25:24.524Z,16.40
2022-10-05T09:27:57.639Z,16.40
2022-10-05T09:30:43.699Z,16.40
2022-10-05T09:33:37.131Z,16.60
2022-10-05T09:36:39.329Z,16.80
2022-10-05T09:39:39.530Z,16.90
2022-10-05T09:42:38.445Z,17.00
2022-10-05T09:45:49.309Z,17.20
2022-10-05T09:48:55.514Z,17.20
2022-10-05T09:51:55.218Z,17.30
2022-10-05T09:55:03.191Z,17.40
2022-10-05T09:58:08.026Z,17.60
2022-10-05T10:01:09.188Z,17.90
2022-10-05T10:04:15.273Z,18.10
2022-10-05T10:07:17.541Z,18.10
2022-10-05T10:10:03.341Z,18.30
2022-10-05T10:12:46.665Z,18.50
2022-10-05T10:15:46.341Z,18.50
2022-10-05T10:18:38.586Z,18.80
2022-10-05T10:21:30.688Z,18.80
2022-10-05T10:24:14.877Z,18.90
2022-10-05T10:27:02.949Z,19.10
2022-10-05T10:29:56.620Z,19.20
2022-10-05T10:32:56.869Z,19.20
2022-10-05T10:35:36.071Z,19.20
2022-10-05T10:38:37.204Z,19.40
2022-10-05T10:41:47.771Z,19.60
2022-10-05T10:44:42.878Z,19.80
2022-10-05T10:47:45.937Z,19.80
2022-10-05T10:50:43.707Z,19.90
2022-10-05T10:53:36.832Z,19.80
2022-10-05T10:56:22.643Z,19.80
2022-10-05T10:59:17.922Z,19.80
2022-10-05T11:02:00.390Z,19.80
2022-10-05T11:05:07.788Z,19.70
2022-10-05T11:08:12.820Z,19.80
2022-10-05T11:11:11.019Z,19.60
2022-10-05T11:14:10.480Z,19.50
2022-10-05T11:17:20.858Z,19.50
2022-10-05T11:20:19.790Z,19.50
2022-10-05T11:23:02.046Z,19.50
2022-10-05T11:26:02.870Z,19.70
2022-10-05T11:29:12.980Z,19.60
2022-10-05T11:32:07.344Z,19.30
2022-10-05T11:35:04.870Z,19.20
2022-10-05T11:37:58.818Z,19.20
2022-10-05T11:41:06.914Z,19.20
2022-10-05T11:44:09.335Z,19.20
2022-10-05T11:46:48.868Z,19.20
2022-10-05T11:49:25.653Z,19.00
2022-10-05T11:52:06.575Z,19.00
2022-10-05T11:55:16.134Z,18.90
2022-10-05T11:57:56.110Z,19.10
2022-10-05T12:00:28.950Z,19.10
2022-10-05T12:03:39.287Z,19.10
2022-10-05T12:06:24.012Z,19.00
2022-10-05T12:09:06.681Z,19.10
2022-10-05T12:11:57.705Z,19.20
2022-10-05T12:14:33.647Z,19.20
2022-10-05T12:17:08.490Z,19.20
2022-10-05T12:19:41.567Z,19.20
2022-10-05T12:22:17.225Z,19.20
2022-10-05T12:25:16.223Z,19.20
2022-10-05T12:27:49.102Z,19.30
2022-10-05T12:30:26.017Z,19.30
2022-10-05T12:33:04.168Z,19.20
2022-10-05T12:35:54.513Z,19.10
2022-10-05T12:38:29.627Z,18.80
2022-10-05T12:41:08.451Z,18.70
2022-10-05T12:43:50.719Z,18.60
2022-10-05T12:46:29.396Z,18.50
2022-10-05T12:49:23.363Z,18.40
2022-10-05T12:51:59.710Z,18.40
2022-10-05T12:54:43.586Z,18.30
2022-10-05T12:57:20.135Z,18.20
2022-10-05T12:59:57.382Z,18.20
2022-10-05T13:02:35.629Z,18.00
2022-10-05T13:05:17.423Z,18.00
2022-10-05T13:08:01.170Z,18.00
2022-10-05T13:10:36.731Z,18.10
2022-10-05T13:13:33.752Z,18.00
2022-10-05T13:16:16.030Z,18.10
2022-10-05T13:18:57.814Z,18.10
2022-10-05T13:21:35.631Z,18.30
2022-10-05T13:24:09.965Z,18.40
2022-10-05T13:26:43.426Z,18.50
2022-10-05T13:29:22.598Z,18.70
2022-10-05T13:31:56.798Z,18.80
2022-10-05T13:34:35.018Z,18.90
2022-10-05T13:37:17.938Z,18.90
2022-10-05T13:39:59.651Z,19.00
2022-10-05T13:42:37.483Z,18.90
2022-10-05T13:45:15.161Z,18.80
2022-10-05T13:48:00.054Z,18.70
2022-10-05T13:50:33.541Z,18.40
2022-10-05T13:53:12.622Z,18.40
2022-10-05T13:55:47.704Z,18.30
2022-10-05T13:58:28.190Z,18.20
2022-10-05T14:01:01.714Z,18.10
2022-10-05T14:03:36.637Z,18.10
2022-10-05T14:06:13.707Z,18.00
2022-10-05T14:08:52.196Z,18.00
2022-10-05T14:11:32.320Z,18.00
2022-10-05T14:14:13.666Z,17.90
2022-10-05T14:16:50.856Z,17.90
2022-10-05T14:19:30.493Z,18.00
2022-10-05T14:22:03.177Z,18.00
2022-10-05T14:24:44.820Z,18.00
2022-10-05T14:27:22.241Z,18.00
2022-10-05T14:29:58.148Z,17.90
2022-10-05T14:32:30.890Z,18.00
2022-10-05T14:35:15.753Z,18.00
2022-10-05T14:37:53.444Z,17.90
2022-10-05T14:40:31.704Z,17.70
2022-10-05T14:43:03.821Z,17.70
2022-10-05T14:45:33.936Z,17.60
2022-10-05T14:48:12.641Z,17.50
2022-10-05T14:50:57.940Z,17.40
2022-10-05T14:53:38.101Z,17.30
2022-10-05T14:56:23.458Z,17.30
2022-10-05T14:59:32.042Z,17.20
2022-10-05T15:02:15.485Z,17.10
2022-10-05T15:04:53.561Z,17.10
2022-10-05T15:07:29.302Z,17.00
2022-10-05T15:10:08.238Z,17.00
2022-10-05T15:12:44.139Z,16.90
2022-10-05T15:15:25.597Z,16.90
2022-10-05T15:18:00.904Z,16.90
2022-10-05T15:20:38.804Z,16.80
2022-10-05T15:23:24.965Z,16.80
2022-10-05T15:26:06.318Z,16.70
2022-10-05T15:28:41.835Z,16.70
2022-10-05T15:31:22.678Z,16.60
2022-10-05T15:33:58.975Z,16.60
2022-10-05T15:36:37.392Z,16.50
2022-10-05T15:39:17.496Z,16.50
2022-10-05T15:42:00.874Z,16.50
2022-10-05T15:44:47.361Z,16.40
2022-10-05T15:47:24.513Z,16.40
2022-10-05T15:50:03.473Z,16.30
2022-10-05T15:52:39.329Z,16.30
2022-10-05T15:55:26.763Z,16.20
2022-10-05T15:58:10.276Z,16.20
2022-10-05T16:00:45.003Z,16.20
2022-10-05T16:03:24.622Z,16.10
2022-10-05T16:06:15.574Z,16.00
2022-10-05T16:09:07.159Z,16.00
2022-10-05T16:12:03.723Z,15.90
2022-10-05T16:14:49.521Z,15.80
2022-10-05T16:17:29.161Z,15.70
2022-10-05T16:20:14.756Z,15.70
2022-10-05T16:22:52.816Z,15.60
2022-10-05T16:25:24.718Z,15.60
2022-10-05T16:28:15.542Z,15.60
2022-10-05T16:30:59.006Z,15.50
2022-10-05T16:33:42.294Z,15.50
2022-10-05T16:36:22.935Z,15.40
2022-10-05T16:39:01.642Z,15.40
2022-10-05T16:41:35.956Z,15.30
2022-10-05T16:44:15.223Z,15.30
2022-10-05T16:46:52.005Z,15.30
2022-10-05T16:49:37.847Z,15.20
2022-10-05T16:52:10.980Z,15.20
2022-10-05T16:54:47.942Z,15.20
2022-10-05T16:57:22.864Z,15.20
2022-10-05T17:00:16.073Z,15.10
2022-10-05T17:03:06.138Z,15.10
2022-10-05T17:06:05.367Z,15.00
2022-10-05T17:09:10.627Z,14.90
2022-10-05T17:11:49.592Z,14.90
2022-10-05T17:14:41.000Z,14.90
2022-10-05T17:17:34.556Z,14.80
2022-10-05T17:20:33.094Z,14.60
2022-10-05T17:23:08.166Z,14.60
2022-10-05T17:25:45.672Z,14.50
2022-10-05T17:28:23.488Z,14.50
2022-10-05T17:31:10.002Z,14.40
2022-10-05T17:34:11.722Z,14.30
2022-10-05T17:36:45.761Z,14.30
2022-10-05T17:39:17.224Z,14.20
2022-10-05T17:41:47.001Z,14.10
2022-10-05T17:44:26.369Z,14.10
2022-10-05T17:46:57.492Z,14.00
2022-10-05T17:50:18.201Z,14.00
2022-10-05T17:53:38.741Z,13.90
2022-10-05T17:56:07.810Z,13.80
2022-10-05T17:59:06.816Z,13.80
2022-10-05T18:01:38.424Z,13.80
2022-10-05T18:04:33.760Z,13.70
2022-10-05T18:07:06.732Z,13.70
2022-10-05T18:09:50.905Z,13.60
2022-10-05T18:12:41.785Z,13.60
2022-10-05T18:15:50.397Z,13.50
2022-10-05T18:18:54.750Z,13.50
2022-10-05T18:21:36.053Z,13.40
2022-10-05T18:24:27.740Z,13.40
2022-10-05T18:27:29.900Z,13.30
2022-10-05T18:30:14.898Z,13.30
2022-10-05T18:33:14.970Z,13.20
2022-10-05T18:36:02.054Z,13.20
2022-10-05T18:38:45.563Z,13.20
2022-10-05T18:41:25.414Z,13.20
2022-10-05T18:44:06.765Z,13.20
2022-10-05T18:46:46.494Z,13.10
2022-10-05T18:49:34.803Z,13.10
2022-10-05T18:52:10.411Z,13.10
2022-10-05T18:54:51.355Z,13.00
2022-10-05T18:58:05.636Z,13.00
2022-10-05T19:00:53.317Z,13.00
2022-10-05T19:03:30.669Z,12.90
2022-10-05T19:06:13.469Z,12.90
2022-10-05T19:08:51.944Z,12.90
2022-10-05T19:11:25.939Z,12.80
2022-10-05T19:14:05.666Z,12.80
2022-10-05T19:16:55.822Z,12.90
2022-10-05T19:19:55.277Z,12.80
2022-10-05T19:22:37.083Z,12.80
2022-10-05T19:25:22.107Z,12.80
2022-10-05T19:28:04.138Z,12.90
2022-10-05T19:31:00.614Z,12.90
2022-10-05T19:33:38.961Z,12.90
2022-10-05T19:36:22.739Z,13.00
2022-10-05T19:39:02.013Z,13.00
2022-10-05T19:41:45.699Z,13.10
2022-10-05T19:44:21.349Z,13.20
2022-10-05T19:47:01.590Z,13.20
2022-10-05T19:49:38.525Z,13.20
2022-10-05T19:52:15.577Z,13.30
2022-10-05T19:54:45.570Z,13.30
2022-10-05T19:57:18.207Z,13.30
2022-10-05T19:59:48.549Z,13.30
2022-10-05T20:02:19.672Z,13.30
2022-10-05T20:04:49.871Z,13.30
2022-10-05T20:07:21.801Z,13.30
2022-10-05T20:09:58.130Z,13.30
2022-10-05T20:12:51.914Z,13.20
2022-10-05T20:15:40.506Z,13.20
2022-10-05T20:19:02.634Z,13.20
2022-10-05T20:21:49.119Z,13.20
2022-10-05T20:24:19.951Z,13.30
2022-10-05T20:27:16.109Z,13.20
2022-10-05T20:29:47.060Z,13.20
2022-10-05T20:32:18.145Z,13.20
2022-10-05T20:34:49.537Z,13.20
2022-10-05T20:37:20.244Z,13.20
2022-10-05T20:39:51.378Z,13.20
2022-10-05T20:42:23.984Z,13.20
2022-10-05T20:44:56.833Z,13.10
2022-10-05T20:47:26.369Z,13.10
2022-10-05T20:49:56.824Z,13.10
2022-10-05T20:52:25.762Z,13.20
2022-10-05T20:54:56.902Z,13.10
2022-10-05T20:57:26.741Z,13.10
2022-10-05T20:59:55.724Z,13.10
2022-10-05T21:02:24.810Z,13.10
2022-10-05T21:04:53.594Z,13.10
2022-10-05T21:07:25.541Z,13.10
2022-10-05T21:09:55.902Z,13.10
2022-10-05T21:12:24.686Z,13.00
2022-10-05T21:14:53.730Z,13.00
2022-10-05T21:17:22.566Z,13.10
2022-10-05T21:19:52.708Z,13.00
2022-10-05T21:22:22.288Z,13.00
2022-10-05T21:24:52.376Z,12.90
2022-10-05T21:27:21.115Z,12.90
2022-10-05T21:29:49.993Z,12.90
2022-10-05T21:32:19.794Z,12.90
2022-10-05T21:34:48.636Z,12.90
2022-10-05T21:37:18.295Z,12.90
2022-10-05T21:39:47.192Z,12.90
2022-10-05T21:42:17.618Z,12.90
2022-10-05T21:44:46.391Z,12.90
2022-10-05T21:47:15.403Z,12.90
2022-10-05T21:49:44.197Z,12.80
2022-10-05T21:52:13.188Z,12.80
2022-10-05T21:54:42.294Z,12.80
2022-10-05T21:57:13.584Z,12.80
2022-10-05T21:59:44.660Z,12.80
2022-10-05T22:02:13.539Z,12.80
2022-10-05T22:04:42.541Z,12.70
2022-10-05T22:07:18.535Z,12.80
2022-10-05T22:09:48.928Z,12.80
2022-10-05T22:12:19.882Z,12.70
2022-10-05T22:14:50.107Z,12.70
2022-10-05T22:17:24.511Z,12.70
2022-10-05T22:19:53.506Z,12.70
2022-10-05T22:22:22.322Z,12.70
2022-10-05T22:24:52.076Z,12.70
2022-10-05T22:27:22.520Z,12.60
2022-10-05T22:29:53.288Z,12.60
2022-10-05T22:32:22.256Z,12.60
2022-10-05T22:34:51.172Z,12.60
2022-10-05T22:37:20.133Z,12.50
2022-10-05T22:39:49.133Z,12.60
2022-10-05T22:42:18.130Z,12.60
2022-10-05T22:44:46.929Z,12.60
2022-10-05T22:47:17.216Z,12.60
2022-10-05T22:49:46.018Z,12.60
2022-10-05T22:52:15.025Z,12.60
2022-10-05T22:54:43.923Z,12.60
2022-10-05T22:57:12.726Z,12.60
2022-10-05T22:59:41.414Z,12.50
2022-10-05T23:02:10.405Z,12.50
2022-10-05T23:04:40.716Z,12.50
2022-10-05T23:07:09.597Z,12.50
2022-10-05T23:09:38.614Z,12.50
2022-10-05T23:12:07.593Z,12.50
2022-10-05T23:14:36.470Z,12.40
2022-10-05T23:17:05.437Z,12.50
2022-10-05T23:19:34.468Z,12.40
2022-10-05T23:22:04.707Z,12.40
2022-10-05T23:24:34.005Z,12.40
2022-10-05T23:27:02.789Z,12.40
2022-10-05T23:29:31.690Z,12.40
2022-10-05T23:32:00.560Z,12.30
2022-10-05T23:34:29.323Z,12.30
2022-10-05T23:36:58.437Z,12.30
2022-10-05T23:39:28.747Z,12.30
2022-10-05T23:41:57.664Z,12.20
2022-10-05T23:44:27.177Z,12.20
2022-10-05T23:46:55.941Z,12.10
2022-10-05T23:49:25.421Z,12.20
2022-10-05T23:51:54.320Z,12.20
2022-10-05T23:54:23.225Z,12.20
2022-10-05T23:56:53.521Z,12.20
2022-10-05T23:59:22.431Z,12.10
